Orondo, Washington
Current Conditions -  °F | °C
As of 4:31 PM on Thursday 18 Dec 2014 (Local Time) from KEAT Reporting Station
Haze Haze  
Wind Chill: 39°   Ceiling: 1000
Heat Index: 39°   Visibility: 5mi
Dew Point: 36°   Wind: 0mph
Humidity: 89%   Direction: NA
Pressure: 29.97"   Gusts: NA
Location:  47.63°N, 120.22°W
Report Text: KEAT 190031Z AUTO 00000KT 5SM BR OVC010 04/02 A2997 RMK AO2 CIG 007V011 T00390022
Loading
Personal Weather Stations






























Interactive Weather Map New forecast layout! Learn more

10-Day Weather Forecast

Advertisements
Track Severe Weather on mobile